Oakdale, NY (11769)

4:23 AM EDT on August 31, 2016 (GMT -0400)
Shore Drive | | Change Station
Active Advisory: Coastal Hazard Statement

Elev 13 ft 40.73 °N, 73.16 °W | Updated 1 minute ago

Partly Cloudy
Partly Cloudy
73.4 °F
Feels Like 72 °F
N
1.2
Wind Variable Wind from SW
Gusts 3.1 mph

Today
High -- | Low -- °F
--% Chance of Precip.
Yesterday
High -- | Low -- °F
Precip. -- in
Pressure 30.02 in
Visibility 10.0 miles
Clouds Few 1300 ft
Few 1800 ft
Heat Index 72 °F
Dew Point 69 °F
Humidity 86%
Rainfall 0.00 in
Snow Depth Not available.
6:19 AM 7:25 PM
Waning Crescent, 1% visible
METAR KISP 310756Z AUTO 21004KT 10SM FEW013 FEW018 23/22 A3002 RMK AO2 SLPNO T02280217
Pressure 30.02 in
Visibility 10.0 miles
Clouds Few 1300 ft
Few 1800 ft
Heat Index 72 °F
Dew Point 69 °F
Humidity 86%
Rainfall 0.00 in
Snow Depth Not available.
6:19 AM 7:25 PM
Waning Crescent, 1% visible
METAR KISP 310756Z AUTO 21004KT 10SM FEW013 FEW018 23/22 A3002 RMK AO2 SLPNO T02280217

10-Day Weather Forecast

Almanac

Astronomy

Aug. 31, 2016 Rise Set
Actual Time
Civil Twilight
Nautical Twilight
Astronomical Twilight
Moon
Length of Visible Light
Length of Day
Tomorrow will be .
, % of the Moon is Illuminated

Today's Extremes

State Highs State Lows

Community

WunderPhotos

Upload Photos

1,936,052 photos uploaded!

WunderBlog® & News

Nearby

Air Quality

  Air Quality AQ Index Pollutant
Not available.

Snow Depth

Station Depth Elevation

Earthquake Activity

City Distance Mag. Time & Date
Minimum magnitude displayed is 2.5.

Coastal Water Temperatures

Place Temperature

Stations

Nearby Weather Stations

Station Location Temp. Windchill Dew Point Humidity Wind Precip. Elev Updated Type
                   

Watches & Warnings

Coastal Hazard Statement
Issued: 4:49 PM EDT Aug. 30, 2016 – National Weather Service

... High rip current risk now in effect through Wednesday
evening...

* locations... the ocean beaches of Kings... southern Queens...
southern Nassau... and southern Suffolk counties.

* Rip current risk... high

* surf height... 3 to 7 feet.

* Lightning risk... none

* timing... through 800 PM EDT Wednesday evening.

Precautionary/preparedness actions...

Rip currents are powerful channels of water flowing quickly away
from shore... which occur most often at low spots or breaks in The
Sandbar and in the vicinity of structures such as groins...
jetties and piers. Talk to lifeguards and beach officials to
learn about any surf hazards and heed their advice. Pay attention
to flags and posted signs and swim in life guarded areas.

If you become caught in a rip current... Yell for help. Remain
calm... do not exhaust yourself and stay afloat while waiting for
help. If you have to swim out of a rip current... swim parallel to
shore. Once you are away from the force of the rip current...
begin to swim back toward the beach. Do not attempt to swim
directly against a rip current as you will tire quickly.